createdAt,value
2022-12-23T00:00:54.186Z,97869.38
2022-12-23T00:11:23.148Z,97871.46
2022-12-23T00:21:50.741Z,97871.11
2022-12-23T00:32:18.447Z,97872.15
2022-12-23T00:42:55.091Z,97884.03
2022-12-23T00:53:23.336Z,97883.34
2022-12-23T01:04:08.111Z,97864.91
2022-12-23T01:14:35.724Z,97873.34
2022-12-23T01:25:03.673Z,97863.35
2022-12-23T01:35:31.327Z,97867.66
2022-12-23T01:45:58.986Z,97869.91
2022-12-23T01:56:31.066Z,97883.34
2022-12-23T02:07:15.726Z,97892.47
2022-12-23T02:17:54.203Z,97902.46
2022-12-23T02:28:51.413Z,97895.89
2022-12-23T02:39:26.939Z,97893.66
2022-12-23T02:49:58.849Z,97892.98
2022-12-23T03:00:26.434Z,97880.94
2022-12-23T03:11:09.274Z,97875.07
2022-12-23T03:21:44.479Z,97875.90
2022-12-23T03:32:15.931Z,97871.17
2022-12-23T03:42:46.717Z,97868.02
2022-12-23T03:53:18.671Z,97867.38
2022-12-23T04:03:56.216Z,97865.50
2022-12-23T04:14:24.642Z,97860.94
2022-12-23T04:24:52.143Z,97842.59
2022-12-23T04:35:19.813Z,97837.02
2022-12-23T04:45:52.995Z,97829.95
2022-12-23T04:56:20.632Z,97829.76
2022-12-23T05:06:48.133Z,97822.38
2022-12-23T05:17:15.889Z,97825.51
2022-12-23T05:27:43.483Z,97822.66
2022-12-23T05:38:11.126Z,97820.45
2022-12-23T05:48:38.736Z,97823.73
2022-12-23T05:59:06.310Z,97811.61
2022-12-23T06:09:33.953Z,97803.88
2022-12-23T06:20:01.538Z,97814.40
2022-12-23T06:30:29.150Z,97815.98
2022-12-23T06:40:56.743Z,97807.67
2022-12-23T06:51:24.308Z,97803.91
2022-12-23T07:01:51.864Z,97805.80
2022-12-23T07:12:19.632Z,97816.70
2022-12-23T07:22:47.183Z,97823.80
2022-12-23T07:33:14.834Z,97832.63
2022-12-23T07:43:42.390Z,97831.65
2022-12-23T07:54:12.810Z,97834.25
2022-12-23T08:04:45.633Z,97837.17
2022-12-23T08:15:14.348Z,97823.05
2022-12-23T08:25:42.216Z,97818.23
2022-12-23T08:36:11.794Z,97807.05
2022-12-23T08:46:40.112Z,97802.58
2022-12-23T08:57:07.868Z,97802.23
2022-12-23T09:07:35.378Z,97791.02
2022-12-23T09:18:03.103Z,97778.76
2022-12-23T09:28:31.310Z,97762.88
2022-12-23T09:38:59.775Z,97745.63
2022-12-23T09:49:28.469Z,97729.58
2022-12-23T10:00:02.784Z,97735.05
2022-12-23T10:10:36.553Z,97722.58
2022-12-23T10:21:08.855Z,97718.41
2022-12-23T10:31:47.745Z,97716.79
2022-12-23T10:42:25.714Z,97714.83
2022-12-23T10:52:58.020Z,97710.84
2022-12-23T11:03:30.686Z,97704.75
2022-12-23T11:13:58.684Z,97709.05
2022-12-23T11:24:28.276Z,97716.27
2022-12-23T11:34:57.382Z,97712.83
2022-12-23T11:45:28.117Z,97708.28
2022-12-23T11:56:04.369Z,97706.00
2022-12-23T12:06:32.735Z,97704.96
2022-12-23T12:17:07.187Z,97707.66
2022-12-23T12:27:40.302Z,97708.73
2022-12-23T12:38:17.245Z,97715.36
2022-12-23T12:48:51.803Z,97713.51
2022-12-23T12:59:24.259Z,97713.52
2022-12-23T13:10:01.992Z,97723.08
2022-12-23T13:20:35.014Z,97731.86
2022-12-23T13:31:07.763Z,97739.25
2022-12-23T13:41:40.106Z,97754.63
2022-12-23T13:52:13.160Z,97763.29
2022-12-23T14:02:53.022Z,97769.71
2022-12-23T14:13:24.073Z,97765.91
2022-12-23T14:24:04.942Z,97771.09
2022-12-23T14:34:36.310Z,97772.61
2022-12-23T14:45:34.962Z,97780.93
2022-12-23T14:56:24.679Z,97792.83
2022-12-23T15:06:55.983Z,97790.91
2022-12-23T15:17:29.417Z,97784.19
2022-12-23T15:28:01.894Z,97793.83
2022-12-23T15:38:33.448Z,97794.81
2022-12-23T15:49:01.366Z,97797.44
2022-12-23T15:59:33.642Z,97789.60
2022-12-23T16:10:05.605Z,97789.79
2022-12-23T16:20:41.188Z,97788.73
2022-12-23T16:31:11.523Z,97793.02
2022-12-23T16:41:39.160Z,97773.48
2022-12-23T16:52:09.381Z,97765.54
2022-12-23T17:02:37.181Z,97769.72
2022-12-23T17:13:04.983Z,97760.41
2022-12-23T17:23:33.961Z,97769.77
2022-12-23T17:34:01.879Z,97772.85
2022-12-23T17:44:29.457Z,97781.34
2022-12-23T17:54:57.307Z,97785.95
2022-12-23T18:05:27.600Z,97784.24
2022-12-23T18:15:55.079Z,97790.92
2022-12-23T18:26:22.816Z,97792.55
2022-12-23T18:36:51.919Z,97810.12
2022-12-23T18:47:19.792Z,97807.06
2022-12-23T18:57:47.304Z,97793.06
2022-12-23T19:08:18.930Z,97786.66
2022-12-23T19:18:50.467Z,97796.80
2022-12-23T19:29:18.260Z,97798.94
2022-12-23T19:39:45.988Z,97792.67
2022-12-23T19:50:14.540Z,97790.48
2022-12-23T20:00:42.338Z,97799.52
2022-12-23T20:11:12.468Z,97792.45
2022-12-23T20:21:40.441Z,97758.50
2022-12-23T20:32:08.558Z,97738.39
2022-12-23T20:42:36.642Z,97733.58
2022-12-23T20:53:04.312Z,97734.93
2022-12-23T21:03:31.977Z,97713.80
2022-12-23T21:14:06.362Z,97712.13
2022-12-23T21:24:34.861Z,97705.80
2022-12-23T21:35:03.032Z,97703.88
2022-12-23T21:45:30.647Z,97704.04
2022-12-23T21:56:03.351Z,97688.35
2022-12-23T22:06:32.853Z,97684.28
2022-12-23T22:17:00.465Z,97679.86
2022-12-23T22:27:28.130Z,97669.73
2022-12-23T22:37:55.720Z,97666.71
2022-12-23T22:48:23.339Z,97656.47
2022-12-23T22:58:52.130Z,97655.52
2022-12-23T23:09:18.940Z,97653.98
2022-12-23T23:19:46.535Z,97654.58
2022-12-23T23:30:14.954Z,97648.48
2022-12-23T23:40:42.503Z,97641.38
2022-12-23T23:51:10.160Z,97626.14
